createdAt,value
2022-12-11T00:01:16.555Z,2.00
2022-12-11T00:03:47.251Z,2.20
2022-12-11T00:06:17.727Z,3.00
2022-12-11T00:08:46.632Z,2.00
2022-12-11T00:11:17.594Z,3.00
2022-12-11T00:13:46.095Z,0.20
2022-12-11T00:16:15.411Z,1.80
2022-12-11T00:18:43.846Z,2.00
2022-12-11T00:21:14.721Z,2.20
2022-12-11T00:23:43.835Z,1.20
2022-12-11T00:26:16.077Z,2.00
2022-12-11T00:28:47.178Z,1.00
2022-12-11T00:31:18.735Z,1.00
2022-12-11T00:33:49.169Z,1.00
2022-12-11T00:36:20.153Z,3.00
2022-12-11T00:38:49.143Z,0.40
2022-12-11T00:41:18.950Z,1.00
2022-12-11T00:43:49.426Z,1.00
2022-12-11T00:46:18.313Z,1.00
2022-12-11T00:48:48.626Z,1.20
2022-12-11T00:51:17.722Z,1.20
2022-12-11T00:53:46.259Z,2.00
2022-12-11T00:56:18.022Z,1.00
2022-12-11T00:58:48.620Z,1.20
2022-12-11T01:01:20.609Z,4.60
2022-12-11T01:03:49.359Z,2.00
2022-12-11T01:06:20.782Z,3.00
2022-12-11T01:09:09.684Z,1.20
2022-12-11T01:11:37.587Z,2.40
2022-12-11T01:14:07.856Z,5.00
2022-12-11T01:16:36.806Z,2.00
2022-12-11T01:19:05.322Z,1.00
2022-12-11T01:21:34.034Z,3.20
2022-12-11T01:24:02.474Z,3.20
2022-12-11T01:26:31.297Z,4.20
2022-12-11T01:29:00.242Z,2.80
2022-12-11T01:31:31.208Z,3.60
2022-12-11T01:33:59.694Z,2.80
2022-12-11T01:36:28.469Z,2.00
2022-12-11T01:38:57.628Z,2.00
2022-12-11T01:41:26.370Z,4.20
2022-12-11T01:44:03.370Z,4.20
2022-12-11T01:46:35.559Z,3.80
2022-12-11T01:49:07.201Z,3.20
2022-12-11T01:51:41.229Z,4.20
2022-12-11T01:54:14.637Z,0.20
2022-12-11T01:56:46.080Z,3.00
2022-12-11T01:59:18.919Z,4.60
2022-12-11T02:01:56.171Z,1.80
2022-12-11T02:04:25.589Z,1.40
2022-12-11T02:06:54.628Z,1.00
2022-12-11T02:09:28.919Z,2.00
2022-12-11T02:12:03.758Z,1.20
2022-12-11T02:14:40.096Z,2.00
2022-12-11T02:17:14.687Z,2.00
2022-12-11T02:19:53.211Z,2.40
2022-12-11T02:22:40.684Z,1.80
2022-12-11T02:25:21.947Z,1.00
2022-12-11T02:27:58.411Z,1.60
2022-12-11T02:30:28.764Z,6.60
2022-12-11T02:32:59.277Z,3.60
2022-12-11T02:35:33.259Z,1.00
2022-12-11T02:38:06.820Z,2.40
2022-12-11T02:40:40.338Z,2.00
2022-12-11T02:43:13.916Z,5.20
2022-12-11T02:45:47.570Z,2.60
2022-12-11T02:48:18.942Z,2.00
2022-12-11T02:50:52.576Z,2.40
2022-12-11T02:53:25.371Z,1.00
2022-12-11T02:56:00.285Z,1.60
2022-12-11T02:58:33.528Z,1.60
2022-12-11T03:01:03.499Z,1.60
2022-12-11T03:03:32.281Z,3.00
2022-12-11T03:06:01.440Z,4.00
2022-12-11T03:08:30.302Z,2.00
2022-12-11T03:10:58.924Z,3.20
2022-12-11T03:13:28.277Z,5.40
2022-12-11T03:16:12.109Z,1.80
2022-12-11T03:18:45.009Z,2.40
2022-12-11T03:21:18.324Z,2.40
2022-12-11T03:23:53.260Z,2.00
2022-12-11T03:26:24.468Z,4.00
2022-12-11T03:28:59.582Z,2.00
2022-12-11T03:31:35.916Z,2.80
2022-12-11T03:34:12.160Z,2.00
2022-12-11T03:36:41.403Z,5.20
2022-12-11T03:39:16.468Z,2.00
2022-12-11T03:41:47.483Z,6.40
2022-12-11T03:44:18.532Z,4.00
2022-12-11T03:46:51.583Z,4.80
2022-12-11T03:49:24.358Z,4.00
2022-12-11T03:51:55.727Z,4.40
2022-12-11T03:54:25.553Z,4.00
2022-12-11T03:56:58.263Z,4.80
2022-12-11T03:59:27.251Z,3.60
2022-12-11T04:01:57.165Z,4.40
2022-12-11T04:04:26.003Z,4.60
2022-12-11T04:06:54.366Z,5.00
2022-12-11T04:09:23.102Z,5.00
2022-12-11T04:11:51.582Z,2.80
2022-12-11T04:14:38.018Z,5.00
2022-12-11T04:17:07.841Z,6.60
2022-12-11T04:19:54.268Z,5.80
2022-12-11T04:22:40.260Z,4.60
2022-12-11T04:25:09.862Z,7.00
2022-12-11T04:27:50.568Z,5.80
2022-12-11T04:30:22.592Z,8.20
2022-12-11T04:32:53.628Z,5.60
2022-12-11T04:35:23.460Z,8.20
2022-12-11T04:37:53.070Z,5.00
2022-12-11T04:40:22.236Z,5.40
2022-12-11T04:42:50.807Z,4.80
2022-12-11T04:45:19.668Z,6.40
2022-12-11T04:47:48.077Z,6.80
2022-12-11T04:50:18.293Z,5.40
2022-12-11T04:52:46.816Z,7.00
2022-12-11T04:55:15.853Z,7.60
2022-12-11T04:57:44.300Z,6.80
2022-12-11T05:00:14.211Z,5.00
2022-12-11T05:02:43.707Z,4.80
2022-12-11T05:05:13.503Z,5.20
2022-12-11T05:07:43.735Z,4.00
2022-12-11T05:10:12.415Z,5.20
2022-12-11T05:12:40.879Z,4.00
2022-12-11T05:15:10.816Z,4.00
2022-12-11T05:17:39.582Z,4.00
2022-12-11T05:20:09.604Z,3.60
2022-12-11T05:22:38.757Z,5.00
2022-12-11T05:25:09.977Z,5.00
2022-12-11T05:27:38.521Z,7.80
2022-12-11T05:30:08.641Z,8.20
2022-12-11T05:32:37.102Z,6.40
2022-12-11T05:35:06.798Z,9.00
2022-12-11T05:37:35.593Z,6.80
2022-12-11T05:40:06.425Z,9.00
2022-12-11T05:42:36.535Z,7.20
2022-12-11T05:45:06.488Z,5.40
2022-12-11T05:47:34.975Z,3.60
2022-12-11T05:50:03.715Z,5.00
2022-12-11T05:52:33.383Z,8.00
2022-12-11T05:55:02.094Z,15.00
2022-12-11T05:57:30.515Z,6.60
2022-12-11T06:00:00.533Z,5.80
2022-12-11T06:02:29.005Z,6.40
2022-12-11T06:04:57.977Z,8.00
2022-12-11T06:07:26.314Z,7.80
2022-12-11T06:09:55.082Z,8.60
2022-12-11T06:12:23.490Z,9.80
2022-12-11T06:14:52.113Z,18.80
2022-12-11T06:17:21.876Z,12.60
2022-12-11T06:19:50.581Z,10.20
2022-12-11T06:22:19.084Z,9.80
2022-12-11T06:24:48.096Z,8.40
2022-12-11T06:27:16.595Z,9.40
2022-12-11T06:29:45.349Z,7.40
2022-12-11T06:32:13.849Z,10.20
2022-12-11T06:34:43.900Z,8.80
2022-12-11T06:37:12.365Z,10.60
2022-12-11T06:39:41.236Z,5.80
2022-12-11T06:42:09.560Z,10.00
2022-12-11T06:44:38.355Z,11.60
2022-12-11T06:47:06.750Z,13.60
2022-12-11T06:49:35.507Z,21.60
2022-12-11T06:52:07.007Z,15.20
2022-12-11T06:54:36.435Z,12.00
2022-12-11T06:57:05.290Z,14.20
2022-12-11T06:59:35.080Z,22.80
2022-12-11T07:02:03.542Z,20.60
2022-12-11T07:04:32.380Z,17.40
2022-12-11T07:07:01.036Z,14.40
2022-12-11T07:09:31.333Z,10.00
2022-12-11T07:11:59.779Z,21.60
2022-12-11T07:14:28.462Z,23.25
2022-12-11T07:16:57.228Z,18.20
2022-12-11T07:19:26.090Z,17.80
2022-12-11T07:21:54.722Z,20.40
2022-12-11T07:24:23.994Z,29.75
2022-12-11T07:26:54.048Z,20.00
2022-12-11T07:29:22.805Z,26.20
2022-12-11T07:31:51.258Z,22.00
2022-12-11T07:34:20.049Z,20.25
2022-12-11T07:36:48.490Z,26.75
2022-12-11T07:39:17.290Z,26.50
2022-12-11T07:41:47.068Z,23.50
2022-12-11T07:44:19.143Z,21.60
2022-12-11T07:46:47.682Z,16.60
2022-12-11T07:49:17.211Z,25.50
2022-12-11T07:51:45.699Z,20.80
2022-12-11T07:54:16.951Z,19.80
2022-12-11T07:56:52.756Z,15.80
2022-12-11T07:59:23.854Z,23.50
2022-12-11T08:01:52.302Z,20.40
2022-12-11T08:04:21.014Z,25.00
2022-12-11T08:06:49.500Z,24.25
2022-12-11T08:09:22.680Z,31.00
2022-12-11T08:11:51.567Z,23.25
2022-12-11T08:14:20.768Z,23.00
2022-12-11T08:16:50.978Z,20.25
2022-12-11T08:19:19.813Z,22.00
2022-12-11T08:21:48.177Z,18.60
2022-12-11T08:24:20.617Z,20.80
2022-12-11T08:26:49.545Z,18.00
2022-12-11T08:29:19.679Z,18.00
2022-12-11T08:31:48.235Z,23.60
2022-12-11T08:34:18.314Z,23.00
2022-12-11T08:36:46.898Z,23.00
2022-12-11T08:39:15.691Z,19.20
2022-12-11T08:41:44.132Z,34.75
2022-12-11T08:44:16.732Z,20.60
2022-12-11T08:46:45.847Z,28.60
2022-12-11T08:49:14.823Z,23.50
2022-12-11T08:51:44.600Z,25.50
2022-12-11T08:54:13.352Z,14.80
2022-12-11T08:56:41.811Z,25.20
2022-12-11T08:59:10.941Z,23.60
2022-12-11T09:01:39.505Z,24.25
2022-12-11T09:04:08.405Z,18.20
2022-12-11T09:06:36.901Z,22.50
2022-12-11T09:09:08.172Z,19.40
2022-12-11T09:11:38.645Z,19.80
2022-12-11T09:14:08.365Z,24.75
2022-12-11T09:16:40.457Z,21.50
2022-12-11T09:19:12.692Z,23.60
2022-12-11T09:21:41.985Z,23.75
2022-12-11T09:24:13.595Z,26.00
2022-12-11T09:26:42.622Z,21.80
2022-12-11T09:29:12.197Z,22.60
2022-12-11T09:31:40.669Z,25.00
2022-12-11T09:34:12.588Z,25.80
2022-12-11T09:36:42.136Z,21.40
2022-12-11T09:39:13.652Z,30.75
2022-12-11T09:41:50.887Z,25.00
2022-12-11T09:44:26.869Z,10.75
2022-12-11T09:46:55.529Z,35.50
2022-12-11T09:49:29.710Z,30.75
2022-12-11T09:52:06.062Z,23.50
2022-12-11T09:54:36.797Z,31.25
2022-12-11T09:57:19.664Z,31.25
2022-12-11T10:00:04.919Z,40.75
2022-12-11T10:02:47.769Z,28.75
2022-12-11T10:05:23.547Z,25.50
2022-12-11T10:08:00.703Z,21.00
2022-12-11T10:10:42.806Z,24.25
2022-12-11T10:13:26.085Z,23.80
2022-12-11T10:16:00.279Z,24.60
2022-12-11T10:18:30.996Z,20.20
2022-12-11T10:21:03.457Z,29.20
2022-12-11T10:23:36.608Z,28.60
2022-12-11T10:26:09.629Z,30.00
2022-12-11T10:28:38.144Z,22.20
2022-12-11T10:31:17.238Z,27.25
2022-12-11T10:33:55.924Z,27.25
2022-12-11T10:36:29.045Z,19.50
2022-12-11T10:38:57.885Z,20.67
2022-12-11T10:41:38.097Z,30.50
2022-12-11T10:44:17.559Z,32.20
2022-12-11T10:46:47.074Z,24.50
2022-12-11T10:49:24.562Z,26.50
2022-12-11T10:51:54.358Z,23.25
2022-12-11T10:54:32.286Z,26.00
2022-12-11T10:57:04.870Z,18.50
2022-12-11T10:59:39.520Z,29.75
2022-12-11T11:02:23.039Z,22.50
2022-12-11T11:04:52.888Z,25.00
2022-12-11T11:07:25.115Z,33.00
2022-12-11T11:10:07.700Z,27.00
2022-12-11T11:12:42.367Z,26.20
2022-12-11T11:15:15.311Z,20.20
2022-12-11T11:17:54.463Z,32.00
2022-12-11T11:20:25.901Z,21.00
2022-12-11T11:22:57.277Z,26.50
2022-12-11T11:25:27.291Z,28.20
2022-12-11T11:27:59.320Z,32.00
2022-12-11T11:30:30.856Z,27.40
2022-12-11T11:33:03.668Z,24.00
2022-12-11T11:35:33.264Z,24.20
2022-12-11T11:38:06.957Z,42.00
2022-12-11T11:40:40.735Z,31.00
2022-12-11T11:43:19.958Z,32.25
2022-12-11T11:45:54.895Z,22.50
2022-12-11T11:48:34.341Z,34.50
2022-12-11T11:51:14.783Z,29.75
2022-12-11T11:53:49.333Z,40.25
2022-12-11T11:56:25.280Z,27.25
2022-12-11T11:59:07.292Z,29.40
2022-12-11T12:01:35.948Z,22.00
2022-12-11T12:04:05.992Z,41.75
2022-12-11T12:07:05.581Z,31.50
2022-12-11T12:09:46.867Z,43.75
2022-12-11T12:12:29.753Z,38.00
2022-12-11T12:15:19.370Z,36.25
2022-12-11T12:17:56.116Z,32.00
2022-12-11T12:20:36.838Z,31.00
2022-12-11T12:23:24.324Z,39.50
2022-12-11T12:26:01.141Z,32.50
2022-12-11T12:28:39.493Z,35.00
2022-12-11T12:31:26.177Z,35.00
2022-12-11T12:34:05.524Z,29.75
2022-12-11T12:36:41.355Z,37.50
2022-12-11T12:39:19.458Z,34.00
2022-12-11T12:42:01.345Z,37.25
2022-12-11T12:44:43.517Z,32.00
2022-12-11T12:47:16.855Z,39.50
2022-12-11T12:49:48.027Z,34.50
2022-12-11T12:52:19.854Z,30.50
2022-12-11T12:55:05.964Z,59.50
2022-12-11T12:57:36.294Z,43.00
2022-12-11T13:00:12.545Z,38.50
2022-12-11T13:02:51.525Z,30.25
2022-12-11T13:05:26.006Z,39.00
2022-12-11T13:07:58.402Z,32.75
2022-12-11T13:10:31.390Z,36.50
2022-12-11T13:13:01.408Z,39.50
2022-12-11T13:15:42.669Z,40.75
2022-12-11T13:18:35.921Z,36.00
2022-12-11T13:21:25.423Z,32.50
2022-12-11T13:23:54.519Z,38.25
2022-12-11T13:26:30.881Z,36.25
2022-12-11T13:29:00.171Z,35.75
2022-12-11T13:31:38.228Z,42.50
2022-12-11T13:34:22.777Z,39.00
2022-12-11T13:36:54.239Z,42.25
2022-12-11T13:39:26.180Z,46.75
2022-12-11T13:41:58.789Z,32.75
2022-12-11T13:44:30.745Z,37.50
2022-12-11T13:47:01.743Z,44.75
2022-12-11T13:49:37.140Z,40.00
2022-12-11T13:52:07.313Z,47.50
2022-12-11T13:54:37.586Z,44.25
2022-12-11T13:57:18.022Z,39.75
2022-12-11T13:59:50.280Z,45.00
2022-12-11T14:02:24.020Z,49.00
2022-12-11T14:04:58.523Z,39.75
2022-12-11T14:07:30.893Z,31.00
2022-12-11T14:10:03.732Z,31.75
2022-12-11T14:12:33.960Z,37.50
2022-12-11T14:15:05.434Z,37.75
2022-12-11T14:17:36.510Z,37.25
2022-12-11T14:20:08.525Z,35.50
2022-12-11T14:22:37.275Z,39.50
2022-12-11T14:25:21.828Z,63.75
2022-12-11T14:27:52.582Z,42.50
2022-12-11T14:30:27.345Z,41.00
2022-12-11T14:32:59.466Z,39.25
2022-12-11T14:35:38.387Z,41.25
2022-12-11T14:38:17.533Z,50.25
2022-12-11T14:40:50.416Z,38.75
2022-12-11T14:43:24.669Z,42.50
2022-12-11T14:46:00.482Z,42.50
2022-12-11T14:48:34.089Z,32.00
2022-12-11T14:51:08.805Z,42.25
2022-12-11T14:53:41.573Z,44.00
2022-12-11T14:56:19.369Z,34.75
2022-12-11T14:58:53.999Z,46.75
2022-12-11T15:01:25.835Z,34.25
2022-12-11T15:04:05.763Z,41.00
2022-12-11T15:06:44.032Z,42.25
2022-12-11T15:09:25.830Z,44.50
2022-12-11T15:11:58.021Z,54.25
2022-12-11T15:14:28.020Z,38.75
2022-12-11T15:16:58.818Z,39.50
2022-12-11T15:19:31.586Z,40.75
2022-12-11T15:22:05.977Z,47.75
2022-12-11T15:24:39.438Z,62.50
2022-12-11T15:27:25.107Z,38.75
2022-12-11T15:29:53.627Z,41.50
2022-12-11T15:32:23.685Z,42.50
2022-12-11T15:34:54.038Z,54.50
2022-12-11T15:37:26.694Z,49.00
2022-12-11T15:39:56.883Z,51.00
2022-12-11T15:42:28.814Z,36.00
2022-12-11T15:44:58.194Z,39.25
2022-12-11T15:47:29.043Z,42.75
2022-12-11T15:50:00.748Z,42.75
2022-12-11T15:52:31.107Z,46.75
2022-12-11T15:54:59.551Z,50.75
2022-12-11T15:57:28.362Z,36.75
2022-12-11T15:59:57.260Z,34.20
2022-12-11T16:02:26.907Z,35.75
2022-12-11T16:04:57.692Z,37.50
2022-12-11T16:07:27.755Z,45.67
2022-12-11T16:09:57.661Z,42.00
2022-12-11T16:12:26.990Z,39.75
2022-12-11T16:14:55.372Z,32.75
2022-12-11T16:17:24.188Z,39.25
2022-12-11T16:19:54.719Z,37.75
2022-12-11T16:22:23.597Z,39.25
2022-12-11T16:24:54.784Z,33.25
2022-12-11T16:27:25.161Z,38.75
2022-12-11T16:29:53.781Z,36.00
2022-12-11T16:32:22.617Z,31.25
2022-12-11T16:34:51.272Z,44.00
2022-12-11T16:37:20.153Z,29.25
2022-12-11T16:39:48.635Z,42.25
2022-12-11T16:42:17.470Z,35.75
2022-12-11T16:44:47.507Z,38.75
2022-12-11T16:47:16.390Z,42.25
2022-12-11T16:49:45.343Z,50.25
2022-12-11T16:52:18.985Z,41.50
2022-12-11T16:54:50.481Z,32.00
2022-12-11T16:57:19.332Z,40.75
2022-12-11T16:59:49.901Z,36.00
2022-12-11T17:02:19.315Z,47.50
2022-12-11T17:04:53.635Z,48.00
2022-12-11T17:07:22.929Z,53.25
2022-12-11T17:09:51.645Z,36.25
2022-12-11T17:12:25.797Z,49.75
2022-12-11T17:14:56.154Z,43.00
2022-12-11T17:17:25.574Z,39.50
2022-12-11T17:19:54.104Z,36.00
2022-12-11T17:22:23.349Z,43.50
2022-12-11T17:24:51.974Z,38.50
2022-12-11T17:27:21.082Z,42.50
2022-12-11T17:29:50.932Z,35.25
2022-12-11T17:32:21.227Z,38.25
2022-12-11T17:34:50.548Z,39.00
2022-12-11T17:37:20.216Z,39.75
2022-12-11T17:39:48.807Z,39.25
2022-12-11T17:42:17.812Z,37.50
2022-12-11T17:44:46.587Z,44.00
2022-12-11T17:47:15.424Z,41.50
2022-12-11T17:49:45.459Z,39.00
2022-12-11T17:52:14.178Z,36.50
2022-12-11T17:54:42.963Z,44.50
2022-12-11T17:57:11.906Z,40.00
2022-12-11T17:59:40.458Z,40.25
2022-12-11T18:02:10.713Z,28.25
2022-12-11T18:04:39.690Z,47.75
2022-12-11T18:07:10.034Z,45.00
2022-12-11T18:09:40.813Z,35.75
2022-12-11T18:12:10.687Z,38.25
2022-12-11T18:14:39.326Z,32.25
2022-12-11T18:17:08.417Z,39.00
2022-12-11T18:19:40.232Z,45.25
2022-12-11T18:22:14.690Z,40.75
2022-12-11T18:24:43.206Z,42.25
2022-12-11T18:27:14.492Z,39.00
2022-12-11T18:29:43.066Z,34.75
2022-12-11T18:32:11.793Z,43.75
2022-12-11T18:34:40.287Z,41.25
2022-12-11T18:37:09.179Z,66.00
2022-12-11T18:39:39.152Z,35.50
2022-12-11T18:42:32.333Z,36.75
2022-12-11T18:44:56.951Z,39.25
2022-12-11T18:47:25.894Z,57.25
2022-12-11T18:49:55.165Z,36.75
2022-12-11T18:52:24.299Z,42.75
2022-12-11T18:54:54.233Z,41.50
2022-12-11T18:57:23.186Z,30.80
2022-12-11T18:59:53.113Z,35.25
2022-12-11T19:02:23.057Z,39.50
2022-12-11T19:04:51.606Z,39.75
2022-12-11T19:07:20.469Z,59.75
2022-12-11T19:09:49.072Z,45.75
2022-12-11T19:12:19.847Z,40.75
2022-12-11T19:14:48.871Z,39.50
2022-12-11T19:17:17.864Z,34.75
2022-12-11T19:19:47.435Z,38.75
2022-12-11T19:22:16.385Z,36.75
2022-12-11T19:24:45.147Z,53.75
2022-12-11T19:27:14.252Z,49.50
2022-12-11T19:29:44.698Z,38.00
2022-12-11T19:32:13.573Z,40.75
2022-12-11T19:34:41.980Z,40.75
2022-12-11T19:37:10.822Z,37.00
2022-12-11T19:39:40.442Z,35.50
2022-12-11T19:42:09.125Z,40.25
2022-12-11T19:44:37.812Z,45.75
2022-12-11T19:47:08.392Z,36.50
2022-12-11T19:49:37.088Z,37.00
2022-12-11T19:52:06.116Z,49.75
2022-12-11T19:54:34.647Z,45.25
2022-12-11T19:57:04.309Z,42.25
2022-12-11T19:59:33.044Z,38.75
2022-12-11T20:02:02.009Z,46.00
2022-12-11T20:04:32.366Z,35.00
2022-12-11T20:07:01.367Z,40.50
2022-12-11T20:09:30.195Z,34.75
2022-12-11T20:11:59.289Z,37.50
2022-12-11T20:14:29.103Z,43.75
2022-12-11T20:17:14.742Z,44.50
2022-12-11T20:19:45.392Z,43.25
2022-12-11T20:22:14.432Z,28.50
2022-12-11T20:24:42.907Z,43.00
2022-12-11T20:27:12.550Z,40.50
2022-12-11T20:29:41.282Z,37.00
2022-12-11T20:32:12.417Z,41.25
2022-12-11T20:34:41.354Z,48.25
2022-12-11T20:37:11.649Z,57.50
2022-12-11T20:39:40.454Z,50.25
2022-12-11T20:42:10.758Z,42.00
2022-12-11T20:44:42.811Z,43.50
2022-12-11T20:47:16.324Z,46.25
2022-12-11T20:49:45.054Z,40.25
2022-12-11T20:52:15.359Z,41.75
2022-12-11T20:54:44.115Z,38.00
2022-12-11T20:57:15.030Z,40.25
2022-12-11T20:59:44.340Z,40.00
2022-12-11T21:02:13.595Z,49.25
2022-12-11T21:04:43.722Z,50.75
2022-12-11T21:07:13.099Z,33.75
2022-12-11T21:09:43.172Z,43.75
2022-12-11T21:12:12.092Z,42.50
2022-12-11T21:14:40.955Z,44.25
2022-12-11T21:17:09.843Z,41.75
2022-12-11T21:19:40.069Z,46.25
2022-12-11T21:22:09.112Z,36.50
2022-12-11T21:24:39.036Z,40.50
2022-12-11T21:27:09.438Z,34.50
2022-12-11T21:29:38.221Z,45.25
2022-12-11T21:32:07.274Z,43.50
2022-12-11T21:34:37.785Z,42.25
2022-12-11T21:37:07.607Z,46.00
2022-12-11T21:39:39.303Z,44.50
2022-12-11T21:42:10.031Z,38.25
2022-12-11T21:47:28.851Z,47.75
2022-12-11T21:49:57.418Z,35.00
2022-12-11T21:52:26.416Z,49.00
2022-12-11T21:54:54.971Z,43.00
2022-12-11T21:57:26.820Z,41.75
2022-12-11T21:59:55.632Z,42.00
2022-12-11T22:02:24.613Z,32.50
2022-12-11T22:04:53.184Z,43.75
2022-12-11T22:07:22.005Z,41.75
2022-12-11T22:09:50.542Z,39.50
2022-12-11T22:12:25.644Z,37.50
2022-12-11T22:14:54.219Z,37.50
2022-12-11T22:17:23.465Z,34.50
2022-12-11T22:19:52.911Z,46.75
2022-12-11T22:22:21.732Z,32.25
2022-12-11T22:24:50.848Z,30.00
2022-12-11T22:27:23.628Z,34.00
2022-12-11T22:29:54.168Z,31.75
2022-12-11T22:32:23.459Z,32.75
2022-12-11T22:34:51.926Z,31.75
2022-12-11T22:37:20.829Z,31.25
2022-12-11T22:39:49.349Z,31.25
2022-12-11T22:42:18.169Z,31.25
2022-12-11T22:44:46.788Z,35.25
2022-12-11T22:47:19.197Z,33.75
2022-12-11T22:49:47.811Z,30.75
2022-12-11T22:52:16.720Z,33.25
2022-12-11T22:54:45.343Z,20.50
2022-12-11T22:57:14.906Z,40.50
2022-12-11T22:59:43.374Z,33.75
2022-12-11T23:02:12.183Z,37.20
2022-12-11T23:04:42.278Z,38.75
2022-12-11T23:07:11.122Z,31.00
2022-12-11T23:09:39.549Z,40.25
2022-12-11T23:12:08.982Z,30.25
2022-12-11T23:14:37.597Z,31.50
2022-12-11T23:17:06.555Z,39.00
2022-12-11T23:19:35.039Z,35.50
2022-12-11T23:22:05.359Z,26.00
2022-12-11T23:24:35.273Z,36.75
2022-12-11T23:27:04.136Z,31.50
2022-12-11T23:29:32.651Z,36.00
2022-12-11T23:32:01.387Z,32.50
2022-12-11T23:34:29.978Z,36.25
2022-12-11T23:36:58.835Z,36.50
2022-12-11T23:39:28.816Z,41.75
2022-12-11T23:41:57.775Z,38.25
2022-12-11T23:44:26.453Z,43.75
2022-12-11T23:46:55.368Z,30.75
2022-12-11T23:49:23.838Z,40.25
2022-12-11T23:51:52.900Z,40.75
2022-12-11T23:54:21.416Z,36.25
2022-12-11T23:56:51.503Z,37.50
2022-12-11T23:59:20.001Z,41.25
